createdAt,value
2023-05-23T00:00:07.938Z,100352.75
2023-05-23T00:02:38.332Z,100352.75
2023-05-23T00:05:07.700Z,100356.00
2023-05-23T00:07:43.797Z,100344.16
2023-05-23T00:10:12.591Z,100351.56
2023-05-23T00:12:43.194Z,100353.69
2023-05-23T00:15:12.600Z,100349.22
2023-05-23T00:17:41.036Z,100344.31
2023-05-23T00:20:10.749Z,100344.19
2023-05-23T00:22:44.946Z,100349.13
2023-05-23T00:25:13.373Z,100335.34
2023-05-23T00:27:41.472Z,100344.88
2023-05-23T00:30:10.617Z,100337.63
2023-05-23T00:32:39.291Z,100332.00
2023-05-23T00:35:07.814Z,100337.13
2023-05-23T00:37:35.581Z,100328.97
2023-05-23T00:40:03.531Z,100331.50
2023-05-23T00:42:33.344Z,100330.13
2023-05-23T00:45:01.249Z,100326.41
2023-05-23T00:47:32.918Z,100327.09
2023-05-23T00:50:01.153Z,100336.09
2023-05-23T00:52:29.216Z,100327.09
2023-05-23T00:54:58.028Z,100322.50
2023-05-23T00:57:26.269Z,100335.09
2023-05-23T00:59:55.882Z,100334.06
2023-05-23T01:02:25.520Z,100337.94
2023-05-23T01:04:54.984Z,100333.81
2023-05-23T01:07:23.633Z,100330.25
2023-05-23T01:09:52.067Z,100336.69
2023-05-23T01:12:28.391Z,100337.84
2023-05-23T01:15:05.341Z,100339.22
2023-05-23T01:17:42.501Z,100337.00
2023-05-23T01:20:19.570Z,100335.31
2023-05-23T01:23:02.480Z,100341.63
2023-05-23T01:26:04.538Z,100348.41
2023-05-23T01:28:39.971Z,100342.34
2023-05-23T01:31:08.890Z,100351.72
2023-05-23T01:33:38.725Z,100359.69
2023-05-23T01:36:06.492Z,100356.13
2023-05-23T01:38:34.474Z,100360.53
2023-05-23T01:41:02.782Z,100360.22
2023-05-23T01:43:31.558Z,100359.56
2023-05-23T01:46:00.924Z,100353.75
2023-05-23T01:48:32.757Z,100364.13
2023-05-23T01:51:00.833Z,100363.47
2023-05-23T01:53:29.532Z,100369.56
2023-05-23T01:55:57.606Z,100368.72
2023-05-23T01:58:25.149Z,100365.84
2023-05-23T02:00:53.149Z,100372.44
2023-05-23T02:03:21.727Z,100364.81
2023-05-23T02:05:49.795Z,100359.38
2023-05-23T02:08:19.118Z,100365.34
2023-05-23T02:10:47.099Z,100366.84
2023-05-23T02:13:15.160Z,100372.16
2023-05-23T02:15:43.183Z,100364.50
2023-05-23T02:18:11.125Z,100370.81
2023-05-23T02:20:41.375Z,100375.03
2023-05-23T02:23:10.090Z,100375.56
2023-05-23T02:25:38.113Z,100371.81
2023-05-23T02:28:06.146Z,100372.69
2023-05-23T02:30:34.142Z,100371.16
2023-05-23T02:33:06.014Z,100376.41
2023-05-23T02:35:34.904Z,100371.47
2023-05-23T02:38:03.550Z,100370.81
2023-05-23T02:40:31.937Z,100367.91
2023-05-23T02:42:59.894Z,100375.06
2023-05-23T02:45:27.845Z,100379.13
2023-05-23T02:47:55.892Z,100377.06
2023-05-23T02:50:24.222Z,100374.25
2023-05-23T02:52:52.081Z,100370.84
2023-05-23T02:55:20.104Z,100370.00
2023-05-23T02:57:52.198Z,100371.81
2023-05-23T03:00:23.071Z,100367.94
2023-05-23T03:02:51.673Z,100370.16
2023-05-23T03:05:20.072Z,100367.66
2023-05-23T03:07:48.338Z,100382.31
2023-05-23T03:10:16.590Z,100379.44
2023-05-23T03:12:44.943Z,100379.09
2023-05-23T03:15:13.075Z,100382.72
2023-05-23T03:17:41.503Z,100382.53
2023-05-23T03:20:10.353Z,100387.56
2023-05-23T03:22:38.352Z,100370.69
2023-05-23T03:25:07.018Z,100386.28
2023-05-23T03:27:34.989Z,100386.44
2023-05-23T03:30:04.812Z,100378.41
2023-05-23T03:32:33.029Z,100379.91
2023-05-23T03:35:00.997Z,100380.00
2023-05-23T03:37:29.310Z,100378.84
2023-05-23T03:39:57.794Z,100379.59
2023-05-23T03:42:25.547Z,100377.09
2023-05-23T03:44:53.306Z,100369.78
2023-05-23T03:47:25.175Z,100370.03
2023-05-23T03:49:53.309Z,100377.03
2023-05-23T03:52:24.506Z,100368.66
2023-05-23T03:54:52.520Z,100373.19
2023-05-23T03:57:20.489Z,100377.09
2023-05-23T03:59:48.474Z,100372.69
2023-05-23T04:02:18.491Z,100366.94
2023-05-23T04:04:47.367Z,100361.50
2023-05-23T04:07:16.180Z,100371.38
2023-05-23T04:09:44.358Z,100366.28
2023-05-23T04:12:12.440Z,100366.13
2023-05-23T04:14:41.477Z,100364.75
2023-05-23T04:17:09.481Z,100370.25
2023-05-23T04:19:37.202Z,100373.13
2023-05-23T04:22:06.082Z,100373.75
2023-05-23T04:24:34.175Z,100380.97
2023-05-23T04:27:02.337Z,100379.13
2023-05-23T04:29:32.156Z,100379.13
2023-05-23T04:32:00.219Z,100376.94
2023-05-23T04:34:29.307Z,100372.88
2023-05-23T04:36:57.683Z,100376.50
2023-05-23T04:39:26.445Z,100368.31
2023-05-23T04:41:54.717Z,100365.94
2023-05-23T04:44:23.716Z,100370.34
2023-05-23T04:46:51.582Z,100370.13
2023-05-23T04:49:23.111Z,100363.00
2023-05-23T04:51:51.583Z,100369.81
2023-05-23T04:54:20.059Z,100371.22
2023-05-23T04:56:48.037Z,100373.25
2023-05-23T04:59:18.319Z,100371.03
2023-05-23T05:01:46.358Z,100368.47
2023-05-23T05:04:34.653Z,100370.50
2023-05-23T05:07:05.379Z,100380.03
2023-05-23T05:09:33.775Z,100378.69
2023-05-23T05:12:01.944Z,100378.69
2023-05-23T05:14:30.396Z,100376.28
2023-05-23T05:16:58.536Z,100372.06
2023-05-23T05:19:26.918Z,100378.88
2023-05-23T05:21:55.221Z,100379.53
2023-05-23T05:24:23.411Z,100394.69
2023-05-23T05:26:51.115Z,100402.88
2023-05-23T05:29:19.257Z,100401.19
2023-05-23T05:31:47.845Z,100390.44
2023-05-23T05:34:18.828Z,100391.97
2023-05-23T05:36:48.458Z,100398.59
2023-05-23T05:39:18.860Z,100391.97
2023-05-23T05:41:48.567Z,100394.69
2023-05-23T05:44:21.416Z,100382.59
2023-05-23T05:46:54.582Z,100390.09
2023-05-23T05:49:27.671Z,100391.97
2023-05-23T05:51:58.851Z,100392.50
2023-05-23T05:54:26.748Z,100387.91
2023-05-23T05:56:55.876Z,100393.69
2023-05-23T05:59:27.279Z,100386.69
2023-05-23T06:01:55.358Z,100388.56
2023-05-23T06:04:23.231Z,100381.41
2023-05-23T06:06:51.344Z,100381.22
2023-05-23T06:09:19.241Z,100376.81
2023-05-23T06:11:47.510Z,100379.53
2023-05-23T06:14:15.069Z,100378.84
2023-05-23T06:16:46.476Z,100372.75
2023-05-23T06:19:14.468Z,100386.00
2023-05-23T06:21:42.530Z,100372.41
2023-05-23T06:24:10.758Z,100368.84
2023-05-23T06:26:39.623Z,100370.19
2023-05-23T06:29:11.204Z,100372.56
2023-05-23T06:31:39.867Z,100381.97
2023-05-23T06:34:07.778Z,100377.50
2023-05-23T06:36:36.383Z,100378.53
2023-05-23T06:39:05.059Z,100371.19
2023-05-23T06:41:33.181Z,100370.69
2023-05-23T06:44:01.651Z,100361.00
2023-05-23T06:46:29.930Z,100367.25
2023-05-23T06:49:13.733Z,100372.69
2023-05-23T06:51:42.983Z,100370.81
2023-05-23T06:54:12.118Z,100366.53
2023-05-23T06:56:40.609Z,100361.53
2023-05-23T06:59:09.068Z,100362.03
2023-05-23T07:01:37.745Z,100363.22
2023-05-23T07:04:05.953Z,100364.88
2023-05-23T07:06:36.876Z,100362.47
2023-05-23T07:09:05.483Z,100369.31
2023-05-23T07:11:33.516Z,100360.09
2023-05-23T07:14:01.730Z,100371.06
2023-05-23T07:16:30.167Z,100364.50
2023-05-23T07:18:57.694Z,100369.59
2023-05-23T07:21:25.639Z,100367.03
2023-05-23T07:23:53.624Z,100363.81
2023-05-23T07:26:21.857Z,100356.19
2023-05-23T07:28:49.713Z,100361.78
2023-05-23T07:31:18.070Z,100362.16
2023-05-23T07:33:46.115Z,100362.59
2023-05-23T07:36:14.230Z,100361.13
2023-05-23T07:38:42.564Z,100359.59
2023-05-23T07:41:12.366Z,100369.88
2023-05-23T07:43:41.233Z,100365.38
2023-05-23T07:46:11.401Z,100372.28
2023-05-23T07:48:39.419Z,100365.94
2023-05-23T07:51:07.436Z,100368.09
2023-05-23T07:53:40.403Z,100365.13
2023-05-23T07:56:08.457Z,100366.88
2023-05-23T07:58:37.387Z,100360.06
2023-05-23T08:01:05.908Z,100364.13
2023-05-23T08:03:33.898Z,100364.97
2023-05-23T08:06:02.072Z,100361.44
2023-05-23T08:08:30.284Z,100367.09
2023-05-23T08:10:58.591Z,100360.75
2023-05-23T08:13:27.017Z,100357.38
2023-05-23T08:15:57.152Z,100351.81
2023-05-23T08:18:25.283Z,100353.16
2023-05-23T08:20:54.540Z,100358.16
2023-05-23T08:23:22.919Z,100354.03
2023-05-23T08:25:51.171Z,100361.38
2023-05-23T08:28:19.253Z,100354.66
2023-05-23T08:30:48.177Z,100350.25
2023-05-23T08:33:16.449Z,100363.22
2023-05-23T08:35:45.636Z,100361.81
2023-05-23T08:38:13.884Z,100359.50
2023-05-23T08:40:44.614Z,100357.91
2023-05-23T08:43:12.830Z,100353.06
2023-05-23T08:45:45.012Z,100353.78
2023-05-23T08:48:14.418Z,100357.50
2023-05-23T08:50:44.116Z,100364.59
2023-05-23T08:53:20.675Z,100355.66
2023-05-23T08:55:49.151Z,100351.66
2023-05-23T08:58:17.936Z,100358.28
2023-05-23T09:00:46.864Z,100359.19
2023-05-23T09:03:14.990Z,100352.91
2023-05-23T09:08:28.430Z,100347.91
2023-05-23T09:10:56.963Z,100345.19
2023-05-23T09:13:26.288Z,100350.47
2023-05-23T09:16:02.801Z,100346.94
2023-05-23T09:18:35.490Z,100324.84
2023-05-23T09:21:06.180Z,100317.69
2023-05-23T09:23:37.315Z,100324.13
2023-05-23T09:26:08.126Z,100327.94
2023-05-23T09:28:38.257Z,100324.06
2023-05-23T09:31:07.938Z,100326.13
2023-05-23T09:33:41.167Z,100324.00
2023-05-23T09:36:09.553Z,100331.09
2023-05-23T09:38:56.083Z,100327.38
2023-05-23T09:41:25.321Z,100334.63
2023-05-23T09:43:54.470Z,100334.06
2023-05-23T09:46:22.967Z,100340.59
2023-05-23T09:48:54.126Z,100335.81
2023-05-23T09:51:23.540Z,100342.25
2023-05-23T09:53:51.401Z,100335.22
2023-05-23T09:56:24.018Z,100333.66
2023-05-23T09:58:51.964Z,100326.72
2023-05-23T10:01:20.263Z,100326.56
2023-05-23T10:03:57.230Z,100330.56
2023-05-23T10:06:32.452Z,100330.91
2023-05-23T10:09:06.791Z,100324.22
2023-05-23T10:12:00.227Z,100325.69
2023-05-23T10:14:30.302Z,100315.31
2023-05-23T10:17:10.691Z,100316.00
2023-05-23T10:19:47.168Z,100315.31
2023-05-23T10:22:18.158Z,100324.63
2023-05-23T10:24:47.079Z,100317.63
2023-05-23T10:27:15.278Z,100299.25
2023-05-23T10:29:55.224Z,100303.72
2023-05-23T10:32:27.430Z,100299.22
2023-05-23T10:35:13.973Z,100283.81
2023-05-23T10:38:05.397Z,100291.22
2023-05-23T10:40:53.518Z,100302.66
2023-05-23T10:43:32.057Z,100291.38
2023-05-23T10:46:00.074Z,100295.72
2023-05-23T10:48:29.819Z,100296.59
2023-05-23T10:51:09.183Z,100289.75
2023-05-23T10:53:39.375Z,100293.03
2023-05-23T10:56:12.671Z,100296.56
2023-05-23T10:58:40.548Z,100297.03
2023-05-23T11:01:10.421Z,100299.13
2023-05-23T11:04:05.574Z,100299.88
2023-05-23T11:06:41.430Z,100308.13
2023-05-23T11:09:15.020Z,100306.97
2023-05-23T11:11:49.536Z,100315.16
2023-05-23T11:14:17.563Z,100311.97
2023-05-23T11:16:49.343Z,100307.06
2023-05-23T11:19:20.698Z,100310.50
2023-05-23T11:22:06.505Z,100298.94
2023-05-23T11:24:54.588Z,100298.47
2023-05-23T11:27:37.140Z,100301.03
2023-05-23T11:30:14.872Z,100303.16
2023-05-23T11:32:51.146Z,100302.28
2023-05-23T11:35:20.296Z,100294.88
2023-05-23T11:37:48.369Z,100300.22
2023-05-23T11:40:39.915Z,100313.72
2023-05-23T11:43:16.979Z,100306.94
2023-05-23T11:45:47.236Z,100310.34
2023-05-23T11:48:17.164Z,100302.31
2023-05-23T11:50:52.753Z,100306.97
2023-05-23T11:53:23.255Z,100308.44
2023-05-23T11:55:54.803Z,100302.53
2023-05-23T11:58:26.929Z,100297.03
2023-05-23T12:01:21.625Z,100288.16
2023-05-23T12:03:54.346Z,100289.41
2023-05-23T12:06:26.968Z,100288.38
2023-05-23T12:08:57.214Z,100289.22
2023-05-23T12:11:26.548Z,100286.41
2023-05-23T12:13:55.107Z,100289.69
2023-05-23T12:16:23.425Z,100282.97
2023-05-23T12:18:53.522Z,100283.81
2023-05-23T12:21:21.548Z,100278.09
2023-05-23T12:23:49.850Z,100268.63
2023-05-23T12:26:23.450Z,100270.56
2023-05-23T12:28:51.993Z,100273.50
2023-05-23T12:31:22.456Z,100277.31
2023-05-23T12:33:53.556Z,100267.50
2023-05-23T12:36:24.846Z,100265.03
2023-05-23T12:38:53.030Z,100255.13
2023-05-23T12:41:22.476Z,100246.50
2023-05-23T12:43:53.426Z,100255.19
2023-05-23T12:46:22.654Z,100247.72
2023-05-23T12:48:51.342Z,100247.28
2023-05-23T12:51:19.929Z,100246.41
2023-05-23T12:53:48.586Z,100251.06
2023-05-23T12:56:16.607Z,100245.41
2023-05-23T12:58:46.572Z,100248.81
2023-05-23T13:01:15.001Z,100243.31
2023-05-23T13:03:43.308Z,100242.69
2023-05-23T13:06:11.174Z,100236.59
2023-05-23T13:08:39.110Z,100246.91
2023-05-23T13:11:07.060Z,100238.03
2023-05-23T13:13:35.232Z,100231.47
2023-05-23T13:16:03.224Z,100242.25
2023-05-23T13:18:32.703Z,100233.28
2023-05-23T13:21:00.611Z,100234.72
2023-05-23T13:23:30.719Z,100241.44
2023-05-23T13:25:59.408Z,100234.97
2023-05-23T13:28:27.793Z,100241.28
2023-05-23T13:30:55.560Z,100240.31
2023-05-23T13:33:24.983Z,100242.72
2023-05-23T13:35:53.394Z,100242.81
2023-05-23T13:38:21.654Z,100248.16
2023-05-23T13:40:52.210Z,100247.88
2023-05-23T13:43:21.118Z,100256.59
2023-05-23T13:45:54.766Z,100254.88
2023-05-23T13:48:23.869Z,100257.06
2023-05-23T13:50:51.901Z,100257.34
2023-05-23T13:53:20.712Z,100248.72
2023-05-23T13:55:48.794Z,100252.03
2023-05-23T13:58:17.048Z,100249.94
2023-05-23T14:00:45.169Z,100248.38
2023-05-23T14:03:14.481Z,100245.97
2023-05-23T14:05:43.003Z,100238.94
2023-05-23T14:08:12.188Z,100236.78
2023-05-23T14:10:41.701Z,100238.13
2023-05-23T14:13:10.323Z,100240.19
2023-05-23T14:15:38.773Z,100235.50
2023-05-23T14:18:08.031Z,100232.69
2023-05-23T14:20:36.537Z,100234.00
2023-05-23T14:23:04.482Z,100224.63
2023-05-23T14:25:35.702Z,100225.66
2023-05-23T14:28:04.256Z,100213.16
2023-05-23T14:30:34.386Z,100225.44
2023-05-23T14:33:11.574Z,100218.00
2023-05-23T14:35:42.512Z,100205.97
2023-05-23T14:38:11.002Z,100205.41
2023-05-23T14:40:39.182Z,100218.38
2023-05-23T14:43:08.121Z,100214.16
2023-05-23T14:45:36.502Z,100216.03
2023-05-23T14:48:06.923Z,100213.53
2023-05-23T14:50:35.423Z,100217.31
2023-05-23T14:53:03.389Z,100214.31
2023-05-23T14:55:34.402Z,100203.75
2023-05-23T14:58:03.985Z,100213.06
2023-05-23T15:00:32.715Z,100215.44
2023-05-23T15:03:01.544Z,100208.66
2023-05-23T15:05:30.262Z,100210.97
2023-05-23T15:07:58.249Z,100205.88
2023-05-23T15:10:26.707Z,100203.31
2023-05-23T15:12:54.529Z,100209.03
2023-05-23T15:15:23.870Z,100205.59
2023-05-23T15:17:51.970Z,100205.59
2023-05-23T15:20:20.029Z,100208.91
2023-05-23T15:22:50.536Z,100214.69
2023-05-23T15:25:29.754Z,100222.47
2023-05-23T15:28:06.897Z,100217.75
2023-05-23T15:30:38.370Z,100223.59
2023-05-23T15:33:07.826Z,100229.56
2023-05-23T15:35:36.714Z,100220.88
2023-05-23T15:38:08.480Z,100215.41
2023-05-23T15:40:37.055Z,100226.34
2023-05-23T15:43:06.965Z,100219.66
2023-05-23T15:45:35.173Z,100217.97
2023-05-23T15:48:03.165Z,100213.25
2023-05-23T15:50:32.090Z,100219.25
2023-05-23T15:53:00.024Z,100217.72
2023-05-23T15:55:28.055Z,100222.88
2023-05-23T15:57:59.238Z,100218.50
2023-05-23T16:00:27.228Z,100222.16
2023-05-23T16:02:55.348Z,100220.97
2023-05-23T16:05:24.099Z,100223.19
2023-05-23T16:07:52.417Z,100232.97
2023-05-23T16:10:20.465Z,100226.16
2023-05-23T16:12:48.989Z,100227.22
2023-05-23T16:15:17.883Z,100224.59
2023-05-23T16:17:49.140Z,100227.31
2023-05-23T16:20:20.714Z,100227.91
2023-05-23T16:22:48.664Z,100228.94
2023-05-23T16:25:16.541Z,100224.44
2023-05-23T16:27:44.578Z,100236.31
2023-05-23T16:30:12.638Z,100230.38
2023-05-23T16:32:42.366Z,100232.81
2023-05-23T16:35:11.636Z,100240.53
2023-05-23T16:37:40.170Z,100239.16
2023-05-23T16:40:09.203Z,100240.44
2023-05-23T16:42:37.523Z,100235.38
2023-05-23T16:45:06.483Z,100233.88
2023-05-23T16:47:34.949Z,100236.97
2023-05-23T16:50:07.621Z,100241.78
2023-05-23T16:52:36.493Z,100233.78
2023-05-23T16:55:05.056Z,100238.69
2023-05-23T16:57:33.321Z,100237.34
2023-05-23T17:00:01.330Z,100241.00
2023-05-23T17:02:29.651Z,100251.34
2023-05-23T17:04:57.812Z,100249.53
2023-05-23T17:07:26.771Z,100243.59
2023-05-23T17:09:55.171Z,100245.34
2023-05-23T17:12:23.109Z,100249.50
2023-05-23T17:14:52.017Z,100251.53
2023-05-23T17:17:20.111Z,100252.75
2023-05-23T17:19:48.726Z,100247.66
2023-05-23T17:22:16.850Z,100238.50
2023-05-23T17:24:44.814Z,100246.69
2023-05-23T17:27:15.668Z,100252.88
2023-05-23T17:29:44.005Z,100257.16
2023-05-23T17:32:12.312Z,100260.75
2023-05-23T17:34:40.443Z,100261.13
2023-05-23T17:37:08.702Z,100259.78
2023-05-23T17:39:37.121Z,100265.41
2023-05-23T17:42:04.960Z,100268.13
2023-05-23T17:44:33.020Z,100272.06
2023-05-23T17:47:01.004Z,100284.00
2023-05-23T17:49:29.455Z,100283.50
2023-05-23T17:51:58.022Z,100280.78
2023-05-23T17:54:26.496Z,100282.84
2023-05-23T17:56:54.898Z,100279.44
2023-05-23T17:59:24.396Z,100276.72
2023-05-23T18:01:52.458Z,100282.72
2023-05-23T18:04:20.537Z,100283.06
2023-05-23T18:06:48.425Z,100283.41
2023-05-23T18:09:16.962Z,100290.91
2023-05-23T18:11:45.483Z,100289.56
2023-05-23T18:14:13.632Z,100289.22
2023-05-23T18:16:41.998Z,100290.63
2023-05-23T18:19:10.509Z,100296.44
2023-05-23T18:21:38.450Z,100299.16
2023-05-23T18:24:06.810Z,100295.41
2023-05-23T18:26:34.922Z,100298.81
2023-05-23T18:29:04.876Z,100294.34
2023-05-23T18:31:32.770Z,100301.31
2023-05-23T18:34:01.121Z,100297.75
2023-05-23T18:36:29.358Z,100296.56
2023-05-23T18:38:56.922Z,100307.97
2023-05-23T18:41:28.046Z,100308.47
2023-05-23T18:43:56.816Z,100307.97
2023-05-23T18:46:49.391Z,100310.03
2023-05-23T18:49:17.915Z,100317.50
2023-05-23T18:51:48.569Z,100306.59
2023-05-23T18:54:16.970Z,100312.44
2023-05-23T18:56:44.840Z,100321.09
2023-05-23T18:59:14.834Z,100310.91
2023-05-23T19:01:44.761Z,100308.91
2023-05-23T19:04:13.765Z,100316.38
2023-05-23T19:06:41.986Z,100306.19
2023-05-23T19:09:11.824Z,100313.69
2023-05-23T19:11:41.077Z,100308.94
2023-05-23T19:14:09.101Z,100310.97
2023-05-23T19:16:37.951Z,100313.88
2023-05-23T19:19:06.357Z,100317.44
2023-05-23T19:21:35.043Z,100314.03
2023-05-23T19:24:07.602Z,100308.06
2023-05-23T19:26:35.864Z,100308.56
2023-05-23T19:29:03.874Z,100298.03
2023-05-23T19:31:32.237Z,100302.13
2023-05-23T19:34:00.243Z,100301.94
2023-05-23T19:36:28.087Z,100304.66
2023-05-23T19:38:56.420Z,100296.16
2023-05-23T19:41:24.620Z,100300.44
2023-05-23T19:43:53.135Z,100305.00
2023-05-23T19:46:21.815Z,100297.72
2023-05-23T19:48:49.950Z,100303.50
2023-05-23T19:51:17.782Z,100303.66
2023-05-23T19:53:45.820Z,100304.00
2023-05-23T19:56:15.327Z,100302.47
2023-05-23T19:58:44.366Z,100296.34
2023-05-23T20:01:15.491Z,100293.94
2023-05-23T20:03:43.909Z,100293.25
2023-05-23T20:06:13.175Z,100300.75
2023-05-23T20:08:41.511Z,100293.44
2023-05-23T20:11:10.557Z,100290.22
2023-05-23T20:13:42.210Z,100286.63
2023-05-23T20:16:10.728Z,100284.75
2023-05-23T20:18:38.798Z,100289.19
2023-05-23T20:21:07.872Z,100291.75
2023-05-23T20:23:36.161Z,100297.34
2023-05-23T20:26:05.635Z,100290.91
2023-05-23T20:28:35.396Z,100298.19
2023-05-23T20:31:03.782Z,100300.91
2023-05-23T20:33:32.193Z,100299.22
2023-05-23T20:36:00.615Z,100296.16
2023-05-23T20:38:32.565Z,100287.81
2023-05-23T20:41:06.948Z,100291.56
2023-05-23T20:43:37.686Z,100294.94
2023-05-23T20:46:06.216Z,100293.25
2023-05-23T20:48:34.452Z,100295.31
2023-05-23T20:51:02.980Z,100286.78
2023-05-23T20:53:31.801Z,100287.47
2023-05-23T20:56:00.671Z,100286.09
2023-05-23T20:58:28.298Z,100282.53
2023-05-23T21:00:56.943Z,100285.94
2023-05-23T21:03:25.677Z,100292.09
2023-05-23T21:05:53.492Z,100288.34
2023-05-23T21:08:22.771Z,100287.50
2023-05-23T21:10:54.182Z,100292.09
2023-05-23T21:13:23.608Z,100294.97
2023-05-23T21:15:51.784Z,100291.06
2023-05-23T21:18:19.501Z,100300.06
2023-05-23T21:20:47.413Z,100296.50
2023-05-23T21:23:15.287Z,100298.06
2023-05-23T21:25:43.138Z,100296.00
2023-05-23T21:28:11.170Z,100291.56
2023-05-23T21:30:39.616Z,100289.69
2023-05-23T21:33:08.192Z,100286.78
2023-05-23T21:35:38.155Z,100293.44
2023-05-23T21:38:06.634Z,100297.03
2023-05-23T21:40:34.867Z,100294.94
2023-05-23T21:43:02.862Z,100296.50
2023-05-23T21:45:31.306Z,100292.75
2023-05-23T21:47:59.166Z,100295.31
2023-05-23T21:50:27.169Z,100290.53
2023-05-23T21:52:55.323Z,100288.81
2023-05-23T21:55:23.470Z,100283.03
2023-05-23T21:57:51.387Z,100286.44
2023-05-23T22:00:20.203Z,100278.75
2023-05-23T22:02:48.818Z,100270.09
2023-05-23T22:05:17.586Z,100283.34
2023-05-23T22:07:46.211Z,100282.97
2023-05-23T22:10:13.857Z,100291.16
2023-05-23T22:12:44.132Z,100291.88
2023-05-23T22:15:12.694Z,100293.94
2023-05-23T22:17:44.249Z,100276.72
2023-05-23T22:20:14.847Z,100292.56
2023-05-23T22:22:43.433Z,100280.97
2023-05-23T22:25:11.663Z,100287.97
2023-05-23T22:27:40.395Z,100284.22
2023-05-23T22:30:09.069Z,100295.09
2023-05-23T22:32:37.259Z,100298.66
2023-05-23T22:35:05.811Z,100302.59
2023-05-23T22:37:33.624Z,100294.41
2023-05-23T22:40:01.395Z,100299.00
2023-05-23T22:42:29.375Z,100302.25
2023-05-23T22:44:57.513Z,100299.53
2023-05-23T22:47:25.387Z,100314.00
2023-05-23T22:49:56.753Z,100303.09
2023-05-23T22:52:25.776Z,100298.19
2023-05-23T22:54:54.021Z,100296.84
2023-05-23T22:57:21.982Z,100302.28
2023-05-23T22:59:49.994Z,100303.13
2023-05-23T23:02:17.980Z,100306.88
2023-05-23T23:04:48.595Z,100305.84
2023-05-23T23:07:17.194Z,100310.28
2023-05-23T23:09:45.224Z,100310.97
2023-05-23T23:12:12.939Z,100308.94
2023-05-23T23:14:41.644Z,100300.06
2023-05-23T23:17:10.283Z,100305.00
2023-05-23T23:19:39.654Z,100302.47
2023-05-23T23:22:08.372Z,100304.34
2023-05-23T23:24:36.341Z,100308.09
2023-05-23T23:27:04.387Z,100316.06
2023-05-23T23:29:32.958Z,100313.69
2023-05-23T23:32:01.320Z,100310.44
2023-05-23T23:34:29.768Z,100308.09
2023-05-23T23:37:00.329Z,100306.53
2023-05-23T23:39:28.306Z,100309.09
2023-05-23T23:41:56.541Z,100307.56
2023-05-23T23:44:24.529Z,100297.34
2023-05-23T23:46:52.781Z,100302.28
2023-05-23T23:49:22.724Z,100296.19
2023-05-23T23:51:50.816Z,100297.72
2023-05-23T23:54:19.951Z,100290.06
2023-05-23T23:56:48.328Z,100310.97
2023-05-23T23:59:16.152Z,100302.31
